Time;durP1;ratioP1;P1;durP2;ratioP2;P2;SDS_P1;SDS_P2;PMS_P1;PMS_P2;Temp;Humidity;BMP_temperature;BMP_pressure;BME280_temperature;BME280_humidity;BME280_pressure;Samples;Min_cycle;Max_cycle;Signal;HPM_P1;HPM_P2
2021/03/05 00:01:07;;;;;;;3.42;0.57;;;4.20;99.90;;;;;;4430885;32;20061;-74
2021/03/05 00:03:32;;;;;;;2.37;1.58;;;4.20;99.90;;;;;;4431086;32;20463;-74
2021/03/05 00:05:58;;;;;;;0.50;0.50;;;4.10;99.90;;;;;;4430977;32;20061;-74
2021/03/05 00:08:24;;;;;;;0.60;0.60;;;4.10;99.90;;;;;;4431376;32;20065;-74
2021/03/05 00:10:49;;;;;;;2.92;0.90;;;4.00;99.90;;;;;;4430384;32;20065;-74
2021/03/05 00:13:15;;;;;;;4.22;0.85;;;4.00;99.90;;;;;;4430834;32;20082;-74
2021/03/05 00:15:43;;;;;;;0.90;0.65;;;4.00;99.90;;;;;;4430283;32;20081;-74
2021/03/05 00:18:09;;;;;;;0.70;0.70;;;4.00;99.90;;;;;;4430890;32;20068;-74
2021/03/05 00:20:37;;;;;;;0.40;0.40;;;4.10;99.90;;;;;;4430845;32;20502;-74
2021/03/05 00:23:03;;;;;;;0.90;0.75;;;4.20;99.90;;;;;;4430494;32;20073;-74
2021/03/05 00:25:28;;;;;;;0.40;0.40;;;4.30;99.90;;;;;;4431860;32;20069;-74
2021/03/05 00:27:54;;;;;;;1.23;0.57;;;4.30;99.90;;;;;;4430643;32;20080;-74
2021/03/05 00:30:20;;;;;;;0.50;0.50;;;4.30;99.90;;;;;;4429987;32;20391;-74
2021/03/05 00:32:46;;;;;;;0.73;0.73;;;4.20;99.90;;;;;;4430363;32;20061;-74
2021/03/05 00:35:14;;;;;;;0.95;0.90;;;4.20;99.90;;;;;;4430727;32;20064;-74
2021/03/05 00:37:40;;;;;;;2.47;1.00;;;4.20;99.90;;;;;;4430626;32;20522;-74
2021/03/05 00:40:09;;;;;;;4.68;1.15;;;4.20;99.90;;;;;;4431000;32;20116;-74
2021/03/05 00:42:34;;;;;;;0.70;0.70;;;4.20;99.90;;;;;;4430560;32;20065;-74
2021/03/05 00:45:00;;;;;;;0.77;0.77;;;4.20;99.90;;;;;;4431513;32;20069;-73
2021/03/05 00:47:25;;;;;;;1.70;1.45;;;4.20;99.90;;;;;;4430223;32;20404;-74
2021/03/05 00:49:51;;;;;;;1.75;1.17;;;4.00;99.90;;;;;;4430523;32;20061;-73
2021/03/05 00:52:16;;;;;;;1.67;0.55;;;3.90;99.90;;;;;;4430492;32;20176;-73
2021/03/05 00:54:42;;;;;;;0.88;0.88;;;3.80;99.90;;;;;;4429814;32;20465;-75
2021/03/05 00:57:08;;;;;;;0.70;0.70;;;3.80;99.90;;;;;;4430389;32;20116;-75
2021/03/05 00:59:33;;;;;;;0.37;0.37;;;3.90;99.90;;;;;;4420119;32;20061;-74
2021/03/05 01:02:00;;;;;;;1.25;0.70;;;4.00;99.90;;;;;;4415833;32;20082;-74
2021/03/05 01:04:26;;;;;;;0.93;0.80;;;4.00;99.90;;;;;;4414506;32;20057;-73
2021/03/05 01:06:51;;;;;;;1.20;0.98;;;4.10;99.90;;;;;;4415120;32;20085;-73
2021/03/05 01:09:17;;;;;;;0.45;0.45;;;4.20;99.90;;;;;;4423069;32;20066;-74
2021/03/05 01:11:43;;;;;;;0.40;0.40;;;4.10;99.90;;;;;;4429479;32;20081;-74
2021/03/05 01:14:08;;;;;;;0.90;0.90;;;4.10;99.90;;;;;;4429766;32;20074;-74
2021/03/05 01:16:34;;;;;;;0.75;0.73;;;4.10;99.90;;;;;;4431093;32;20116;-73
2021/03/05 01:18:59;;;;;;;1.87;1.35;;;4.00;99.90;;;;;;4429655;32;20085;-74
2021/03/05 01:21:25;;;;;;;5.78;1.27;;;4.10;99.90;;;;;;4429919;32;20514;-74
2021/03/05 01:23:50;;;;;;;3.20;0.70;;;3.80;99.90;;;;;;4430170;32;20112;-74
2021/03/05 01:26:16;;;;;;;8.77;1.25;;;3.70;99.90;;;;;;4430002;32;20085;-74
2021/03/05 01:28:45;;;;;;;1.62;0.60;;;3.60;99.90;;;;;;4430124;32;20490;-74
2021/03/05 01:31:13;;;;;;;0.35;0.35;;;3.60;99.90;;;;;;4429903;32;20169;-74
2021/03/05 01:33:38;;;;;;;1.30;1.20;;;3.70;99.90;;;;;;4429379;32;20064;-74
2021/03/05 01:36:04;;;;;;;0.55;0.55;;;3.60;99.90;;;;;;4429953;32;20124;-74
2021/03/05 01:38:30;;;;;;;0.50;0.50;;;3.60;99.90;;;;;;4429820;32;20077;-74
2021/03/05 01:40:55;;;;;;;1.65;1.55;;;3.50;99.90;;;;;;4430846;32;20131;-74
2021/03/05 01:43:21;;;;;;;5.47;0.80;;;3.50;99.90;;;;;;4429265;32;20065;-74
2021/03/05 01:45:47;;;;;;;0.40;0.40;;;3.50;99.90;;;;;;4429513;32;20069;-74
2021/03/05 01:48:15;;;;;;;8.07;2.10;;;3.50;99.90;;;;;;4429727;32;20070;-74
2021/03/05 01:50:51;;;;;;;0.40;0.40;;;3.50;99.90;;;;;;4429019;32;20065;-74
2021/03/05 01:53:17;;;;;;;1.85;0.93;;;3.40;99.90;;;;;;4429313;32;20061;-74
2021/03/05 01:55:43;;;;;;;0.95;0.95;;;3.40;99.90;;;;;;4430696;32;20069;-74
2021/03/05 01:58:08;;;;;;;1.75;1.62;;;3.30;99.90;;;;;;4430559;32;20119;-74
2021/03/05 02:00:43;;;;;;;0.70;0.70;;;3.30;99.90;;;;;;4429607;32;20119;-74
2021/03/05 02:03:09;;;;;;;0.65;0.65;;;3.30;99.90;;;;;;4430544;32;20065;-74
2021/03/05 02:05:38;;;;;;;1.02;0.95;;;3.30;99.90;;;;;;4430315;32;20411;-74
2021/03/05 02:08:06;;;;;;;0.62;0.62;;;3.30;99.90;;;;;;4428303;32;20057;-74
2021/03/05 02:10:32;;;;;;;0.80;0.80;;;3.20;99.90;;;;;;4413681;32;20066;-74
2021/03/05 02:12:57;;;;;;;0.50;0.50;;;3.10;99.90;;;;;;4413894;32;20085;-74
2021/03/05 02:15:23;;;;;;;10.50;1.65;;;3.20;99.90;;;;;;4413802;32;20086;-74
2021/03/05 02:18:06;;;;;;;1.17;1.05;;;3.20;99.90;;;;;;4413876;32;20101;-74
2021/03/05 02:21:08;;;;;;;0.40;0.40;;;3.10;99.90;;;;;;4413733;32;20086;-74
2021/03/05 02:24:10;;;;;;;1.17;0.82;;;3.00;99.90;;;;;;4412919;32;20083;-74
2021/03/05 02:27:16;;;;;;;0.73;0.73;;;3.00;99.90;;;;;;4413269;32;20112;-74
2021/03/05 02:30:11;;;;;;;1.37;1.27;;;2.90;99.90;;;;;;4404251;32;20506;-74
2021/03/05 02:32:53;;;;;;;5.93;1.40;;;2.90;99.90;;;;;;4412942;32;20070;-74
2021/03/05 02:35:21;;;;;;;2.30;2.00;;;2.80;99.90;;;;;;4413540;32;20113;-74
2021/03/05 02:37:49;;;;;;;6.97;1.27;;;2.70;99.90;;;;;;4415362;32;20077;-74
2021/03/05 02:40:23;;;;;;;1.85;1.42;;;2.70;99.90;;;;;;4414493;32;20082;-74
2021/03/05 02:42:55;;;;;;;0.43;0.43;;;2.70;99.90;;;;;;4413774;32;20132;-74
2021/03/05 02:45:25;;;;;;;1.77;0.93;;;2.60;99.90;;;;;;4413140;32;20478;-74
2021/03/05 02:47:55;;;;;;;0.75;0.75;;;2.70;99.90;;;;;;4413612;32;20081;-74
2021/03/05 02:50:25;;;;;;;3.92;2.10;;;2.60;99.90;;;;;;4413139;32;20081;-74
2021/03/05 02:52:55;;;;;;;2.65;1.70;;;2.60;99.90;;;;;;4414503;32;20066;-74
2021/03/05 02:55:22;;;;;;;0.98;0.98;;;2.80;99.90;;;;;;4413827;32;20502;-74
2021/03/05 02:57:53;;;;;;;6.62;2.78;;;2.80;99.90;;;;;;4413451;32;20073;-74
2021/03/05 03:00:20;;;;;;;1.45;1.35;;;2.60;99.90;;;;;;4413476;32;20078;-74
2021/03/05 03:02:48;;;;;;;0.73;0.73;;;2.40;99.90;;;;;;4413465;32;20074;-74
2021/03/05 03:05:14;;;;;;;0.40;0.40;;;2.40;99.90;;;;;;4413977;32;20081;-74
2021/03/05 03:07:41;;;;;;;4.37;0.95;;;2.40;99.90;;;;;;4414859;32;20510;-74
2021/03/05 03:10:10;;;;;;;0.40;0.40;;;2.50;99.90;;;;;;4426978;32;20072;-74
2021/03/05 03:12:37;;;;;;;1.33;0.68;;;2.50;99.90;;;;;;4428499;32;20094;-74
2021/03/05 03:15:07;;;;;;;2.20;1.20;;;2.50;99.90;;;;;;4428748;32;20864;-74
2021/03/05 03:17:32;;;;;;;0.60;0.60;;;2.40;99.90;;;;;;4428537;32;20134;-74
2021/03/05 03:19:58;;;;;;;1.48;1.23;;;2.40;99.90;;;;;;4428631;32;20406;-74
2021/03/05 03:22:24;;;;;;;0.90;0.90;;;2.30;99.90;;;;;;4428808;32;20073;-74
2021/03/05 03:24:50;;;;;;;6.00;1.85;;;2.30;99.90;;;;;;4428514;32;20574;-73
2021/03/05 03:27:16;;;;;;;4.28;1.02;;;2.30;99.90;;;;;;4428319;32;20172;-74
2021/03/05 03:29:41;;;;;;;10.30;1.25;;;2.20;99.90;;;;;;4428611;32;20061;-74
2021/03/05 03:32:10;;;;;;;0.45;0.45;;;2.10;99.90;;;;;;4428373;32;20086;-74
2021/03/05 03:34:37;;;;;;;0.50;0.50;;;2.00;99.90;;;;;;4428305;32;20062;-74
2021/03/05 03:37:04;;;;;;;1.45;1.35;;;2.10;99.90;;;;;;4428746;32;20515;-74
2021/03/05 03:39:30;;;;;;;0.45;0.45;;;2.10;99.90;;;;;;4428380;32;20061;-74
2021/03/05 03:41:56;;;;;;;1.20;0.95;;;2.00;99.90;;;;;;4428152;32;20057;-74
2021/03/05 03:44:21;;;;;;;1.25;1.10;;;1.90;99.90;;;;;;4428369;32;20081;-74
2021/03/05 03:46:48;;;;;;;0.50;0.50;;;2.00;99.90;;;;;;4428181;32;20475;-74
2021/03/05 03:49:31;;;;;;;0.35;0.35;;;2.00;99.90;;;;;;4429008;32;20086;-74
2021/03/05 03:52:01;;;;;;;0.40;0.40;;;1.90;99.90;;;;;;4428229;32;20137;-74
2021/03/05 03:54:28;;;;;;;0.40;0.40;;;1.90;99.90;;;;;;4428383;32;20074;-74
2021/03/05 03:56:57;;;;;;;0.65;0.65;;;1.90;99.90;;;;;;4429143;32;20069;-74
2021/03/05 03:59:23;;;;;;;9.18;1.65;;;1.80;99.90;;;;;;4428239;32;20069;-74
2021/03/05 04:01:49;;;;;;;0.60;0.60;;;1.90;99.90;;;;;;4428218;32;20068;-74
2021/03/05 04:04:17;;;;;;;0.50;0.50;;;1.80;99.90;;;;;;4428907;32;20120;-74
2021/03/05 04:06:45;;;;;;;0.60;0.60;;;1.90;99.90;;;;;;4429047;32;20498;-74
2021/03/05 04:09:11;;;;;;;2.50;1.10;;;1.90;99.90;;;;;;4421161;32;20069;-74
2021/03/05 04:11:39;;;;;;;0.88;0.65;;;1.80;99.90;;;;;;4412268;32;20447;-74
2021/03/05 04:14:04;;;;;;;0.62;0.62;;;1.70;99.90;;;;;;4415313;32;20078;-74
2021/03/05 04:16:30;;;;;;;1.33;0.77;;;1.60;99.90;;;;;;4415134;32;20463;-74
2021/03/05 04:18:55;;;;;;;0.73;0.73;;;1.60;99.90;;;;;;4416068;32;20077;-74
2021/03/05 04:21:26;;;;;;;4.25;1.25;;;1.60;99.90;;;;;;4415156;32;20125;-74
2021/03/05 04:23:51;;;;;;;0.50;0.50;;;1.60;99.90;;;;;;4415360;32;20514;-74
2021/03/05 04:26:16;;;;;;;0.50;0.50;;;1.50;99.90;;;;;;4415770;32;20111;-74
2021/03/05 04:28:42;;;;;;;0.52;0.52;;;1.40;99.90;;;;;;4415210;32;20082;-74
2021/03/05 04:31:08;;;;;;;0.50;0.50;;;1.30;99.90;;;;;;4414936;32;20079;-74
2021/03/05 04:33:33;;;;;;;0.30;0.30;;;1.40;99.90;;;;;;4415310;32;20062;-74
2021/03/05 04:35:59;;;;;;;0.40;0.40;;;1.40;99.90;;;;;;4416305;32;20120;-74
2021/03/05 04:38:24;;;;;;;1.30;1.23;;;1.30;99.90;;;;;;4415222;32;20388;-74
2021/03/05 04:40:50;;;;;;;0.43;0.43;;;1.20;99.90;;;;;;4415237;32;20077;-74
2021/03/05 04:43:15;;;;;;;0.50;0.50;;;1.20;99.90;;;;;;4415378;32;20108;-74
2021/03/05 04:45:41;;;;;;;0.37;0.37;;;1.10;99.90;;;;;;4415053;32;20097;-74
2021/03/05 04:48:07;;;;;;;12.85;1.27;;;1.20;99.90;;;;;;4415371;32;20066;-74
2021/03/05 04:50:33;;;;;;;0.35;0.35;;;1.20;99.90;;;;;;4415224;32;20085;-74
2021/03/05 04:52:58;;;;;;;0.45;0.45;;;1.30;99.90;;;;;;4416037;32;20395;-74
2021/03/05 04:55:24;;;;;;;2.20;0.95;;;1.20;99.90;;;;;;4415787;32;20523;-74
2021/03/05 04:57:49;;;;;;;2.00;1.30;;;1.10;99.90;;;;;;4414711;32;20124;-74
2021/03/05 05:00:15;;;;;;;0.70;0.70;;;1.00;99.90;;;;;;4414706;32;20094;-74
2021/03/05 05:02:40;;;;;;;0.65;0.65;;;1.00;99.90;;;;;;4414835;32;20065;-74
2021/03/05 05:05:06;;;;;;;0.40;0.40;;;1.00;99.90;;;;;;4414662;32;20121;-74
2021/03/05 05:07:32;;;;;;;1.42;1.05;;;1.20;99.90;;;;;;4415010;32;20066;-74
2021/03/05 05:09:57;;;;;;;0.37;0.37;;;1.40;99.90;;;;;;4427921;32;20085;-74
2021/03/05 05:12:23;;;;;;;1.27;0.90;;;1.40;99.90;;;;;;4429411;32;20296;-74
2021/03/05 05:14:48;;;;;;;0.40;0.40;;;1.40;99.90;;;;;;4430086;32;20083;-74
2021/03/05 05:17:14;;;;;;;1.10;0.85;;;1.50;99.90;;;;;;4429875;32;20054;-74
2021/03/05 05:19:39;;;;;;;0.47;0.47;;;1.40;99.90;;;;;;4429958;32;20073;-74
2021/03/05 05:22:05;;;;;;;1.60;1.05;;;1.40;99.90;;;;;;4430127;32;20116;-74
2021/03/05 05:24:30;;;;;;;0.73;0.73;;;1.30;99.90;;;;;;4429091;32;20073;-74
2021/03/05 05:26:56;;;;;;;0.40;0.40;;;1.40;99.90;;;;;;4429812;32;20074;-74
2021/03/05 05:29:22;;;;;;;1.12;1.10;;;1.30;99.90;;;;;;4429629;32;20086;-74
2021/03/05 05:31:47;;;;;;;0.85;0.85;;;1.30;99.90;;;;;;4429645;32;20056;-74
2021/03/05 05:34:13;;;;;;;0.50;0.50;;;1.40;99.90;;;;;;4429588;32;20077;-74
2021/03/05 05:36:38;;;;;;;0.73;0.73;;;1.30;99.90;;;;;;4429983;32;20081;-74
2021/03/05 05:39:04;;;;;;;1.05;0.88;;;1.30;99.90;;;;;;4429513;32;20540;-74
2021/03/05 05:41:29;;;;;;;7.20;1.62;;;1.10;99.90;;;;;;4429591;32;20172;-74
2021/03/05 05:43:55;;;;;;;2.67;1.55;;;1.20;99.90;;;;;;4429308;32;20077;-74
2021/03/05 05:46:22;;;;;;;1.75;1.45;;;1.10;99.90;;;;;;4429799;32;20128;-74
2021/03/05 05:48:48;;;;;;;0.52;0.52;;;1.20;99.90;;;;;;4431047;32;20069;-74
2021/03/05 05:51:18;;;;;;;0.50;0.50;;;1.20;99.90;;;;;;4430490;32;20088;-74
2021/03/05 05:53:46;;;;;;;0.60;0.60;;;1.30;99.90;;;;;;4428924;32;20065;-74
2021/03/05 05:56:13;;;;;;;0.52;0.50;;;1.10;99.90;;;;;;4429502;32;20081;-74
2021/03/05 05:58:39;;;;;;;0.60;0.60;;;1.00;99.90;;;;;;4428701;32;20084;-74
2021/03/05 06:01:06;;;;;;;1.02;0.95;;;0.90;99.90;;;;;;4428962;32;20094;-74
2021/03/05 06:03:32;;;;;;;1.35;1.05;;;0.90;99.90;;;;;;4422064;32;20077;-74
2021/03/05 06:05:57;;;;;;;0.57;0.55;;;0.90;99.90;;;;;;4413836;32;20058;-74
2021/03/05 06:08:23;;;;;;;7.12;0.85;;;0.90;99.90;;;;;;4414109;32;20405;-74
2021/03/05 06:10:49;;;;;;;0.73;0.73;;;0.70;99.90;;;;;;4413276;32;20061;-74
2021/03/05 06:13:15;;;;;;;0.40;0.40;;;0.60;99.90;;;;;;4413371;32;20066;-74
2021/03/05 06:15:41;;;;;;;5.47;1.23;;;0.70;99.90;;;;;;4408231;32;20090;-73
2021/03/05 06:18:27;;;;;;;0.50;0.50;;;0.70;99.90;;;;;;4414932;32;20494;-73
2021/03/05 06:20:53;;;;;;;0.80;0.80;;;0.80;99.90;;;;;;4408246;32;20512;-74
2021/03/05 06:23:18;;;;;;;0.50;0.50;;;0.70;99.90;;;;;;4399710;32;20077;-74
2021/03/05 06:25:44;;;;;;;0.57;0.57;;;0.80;99.90;;;;;;4399121;32;20508;-74
2021/03/05 06:28:11;;;;;;;2.15;0.93;;;0.70;99.90;;;;;;4398908;32;20066;-74
2021/03/05 06:30:36;;;;;;;0.60;0.60;;;0.80;99.90;;;;;;4399537;32;20074;-77
2021/03/05 06:33:02;;;;;;;0.35;0.35;;;0.80;99.90;;;;;;4413907;32;20066;-73
2021/03/05 06:35:28;;;;;;;0.70;0.70;;;0.80;99.90;;;;;;4413526;32;20074;-74
2021/03/05 06:37:53;;;;;;;0.98;0.98;;;0.80;99.90;;;;;;4413587;32;20073;-74
2021/03/05 06:40:19;;;;;;;0.90;0.90;;;0.90;99.90;;;;;;4413518;32;20120;-74
2021/03/05 06:42:50;;;;;;;0.43;0.43;;;0.90;99.90;;;;;;4413251;32;20389;-73
2021/03/05 06:45:18;;;;;;;0.40;0.40;;;0.90;99.90;;;;;;4413720;32;20390;-74
2021/03/05 06:48:02;;;;;;;0.98;0.95;;;1.10;99.90;;;;;;4413304;32;20123;-74
2021/03/05 06:50:28;;;;;;;22.62;2.33;;;1.10;99.90;;;;;;4413284;32;20070;-74
2021/03/05 06:52:53;;;;;;;0.55;0.55;;;1.20;99.90;;;;;;4413457;32;20507;-74
2021/03/05 06:55:19;;;;;;;0.82;0.82;;;1.20;99.90;;;;;;4414907;32;20066;-74
2021/03/05 06:57:45;;;;;;;0.50;0.50;;;1.30;99.90;;;;;;4413276;32;20070;-74
2021/03/05 07:00:16;;;;;;;0.80;0.80;;;1.40;99.90;;;;;;4412992;32;20070;-74
2021/03/05 07:02:41;;;;;;;0.50;0.50;;;1.50;99.90;;;;;;4413368;32;20425;-74
2021/03/05 07:05:07;;;;;;;0.57;0.57;;;1.50;99.90;;;;;;4412846;32;20082;-74
2021/03/05 07:07:45;;;;;;;0.90;0.90;;;1.60;99.90;;;;;;4414099;32;20192;-74
2021/03/05 07:10:12;;;;;;;1.05;0.95;;;1.70;99.90;;;;;;4427233;32;20487;-74
2021/03/05 07:12:57;;;;;;;0.70;0.70;;;1.80;99.90;;;;;;4427996;32;20124;-73
2021/03/05 07:15:23;;;;;;;0.40;0.40;;;1.90;99.90;;;;;;4409380;32;20077;-74
2021/03/05 07:17:48;;;;;;;0.60;0.60;;;1.90;99.90;;;;;;4412804;32;20150;-74
2021/03/05 07:20:14;;;;;;;3.37;0.85;;;2.00;99.90;;;;;;4403075;32;20531;-74
2021/03/05 07:22:41;;;;;;;0.40;0.40;;;1.90;99.90;;;;;;4408881;32;20073;-74
2021/03/05 07:25:07;;;;;;;0.40;0.40;;;2.00;99.90;;;;;;4411512;32;20066;-74
2021/03/05 07:27:38;;;;;;;0.40;0.40;;;1.90;99.90;;;;;;4412061;32;20105;-73
2021/03/05 07:30:10;;;;;;;0.50;0.50;;;2.00;99.90;;;;;;4412629;32;20540;-74
2021/03/05 07:32:40;;;;;;;0.82;0.82;;;2.10;99.90;;;;;;4413241;32;20072;-74
2021/03/05 07:35:13;;;;;;;0.40;0.40;;;2.20;99.90;;;;;;4412949;32;20077;-74
2021/03/05 07:37:48;;;;;;;2.58;1.30;;;2.40;99.90;;;;;;4406782;32;20642;-74
2021/03/05 07:40:16;;;;;;;0.50;0.50;;;2.50;99.90;;;;;;4402534;32;20062;-74
2021/03/05 07:42:42;;;;;;;0.40;0.40;;;2.50;99.90;;;;;;4412299;32;20085;-74
2021/03/05 07:45:10;;;;;;;0.35;0.35;;;2.50;99.90;;;;;;4409737;32;20081;-74
2021/03/05 07:47:39;;;;;;;0.43;0.43;;;2.70;99.90;;;;;;4416124;32;20421;-74
2021/03/05 07:50:06;;;;;;;0.62;0.62;;;2.80;99.90;;;;;;4413875;32;20845;-74
2021/03/05 07:52:32;;;;;;;0.43;0.43;;;2.70;99.90;;;;;;4415335;32;20113;-74
2021/03/05 07:54:58;;;;;;;0.55;0.55;;;2.90;99.90;;;;;;4411961;32;20112;-74
2021/03/05 07:57:25;;;;;;;0.40;0.40;;;2.90;99.90;;;;;;4414578;32;20069;-74
2021/03/05 07:59:52;;;;;;;0.45;0.45;;;3.00;99.90;;;;;;4414875;32;20062;-74
2021/03/05 08:02:19;;;;;;;0.40;0.40;;;3.20;99.90;;;;;;4416660;32;20490;-74
2021/03/05 08:04:51;;;;;;;0.35;0.35;;;3.30;99.90;;;;;;4415205;32;20065;-74
2021/03/05 08:07:17;;;;;;;0.40;0.40;;;3.40;99.90;;;;;;4414522;32;20559;-74
2021/03/05 08:09:43;;;;;;;0.70;0.70;;;3.50;99.90;;;;;;4418250;32;20066;-74
2021/03/05 08:12:34;;;;;;;0.35;0.35;;;3.60;99.90;;;;;;4415009;32;20503;-74
2021/03/05 08:15:09;;;;;;;0.60;0.60;;;3.60;99.90;;;;;;4413510;32;20073;-74
2021/03/05 08:17:40;;;;;;;0.50;0.50;;;3.60;99.90;;;;;;4413829;32;20176;-73
2021/03/05 08:20:08;;;;;;;0.68;0.68;;;3.60;99.90;;;;;;4413354;32;20085;-73
2021/03/05 08:22:54;;;;;;;0.40;0.40;;;3.70;99.90;;;;;;4414256;32;20125;-74
2021/03/05 08:25:21;;;;;;;0.40;0.40;;;3.80;99.90;;;;;;4409790;32;20078;-73
2021/03/05 08:27:47;;;;;;;6.43;1.52;;;3.90;99.90;;;;;;4407924;32;20077;-73
2021/03/05 08:30:14;;;;;;;0.47;0.47;;;3.90;99.90;;;;;;4413532;32;20393;-75
2021/03/05 08:32:48;;;;;;;0.43;0.43;;;3.90;99.90;;;;;;4418069;32;20069;-75
2021/03/05 08:35:34;;;;;;;0.40;0.40;;;4.00;99.90;;;;;;4416770;32;20094;-73
2021/03/05 08:38:05;;;;;;;0.90;0.88;;;4.00;99.90;;;;;;4412257;32;20191;-74
2021/03/05 08:40:34;;;;;;;13.45;0.62;;;4.10;99.90;;;;;;4413097;32;20134;-73
2021/03/05 08:43:18;;;;;;;0.40;0.40;;;4.20;99.90;;;;;;4411411;32;20085;-73
2021/03/05 08:45:46;;;;;;;0.40;0.40;;;4.30;99.90;;;;;;4399952;32;20061;-75
2021/03/05 08:48:23;;;;;;;0.43;0.43;;;4.40;99.90;;;;;;4408108;32;20325;-73
2021/03/05 08:50:49;;;;;;;0.82;0.82;;;4.40;99.90;;;;;;4403787;32;21293;-73
2021/03/05 08:53:16;;;;;;;0.50;0.50;;;4.30;99.90;;;;;;4404500;32;20550;-74
2021/03/05 08:55:44;;;;;;;0.50;0.50;;;4.30;99.90;;;;;;4403598;32;20066;-73
2021/03/05 08:58:14;;;;;;;0.40;0.40;;;4.40;99.90;;;;;;4406617;32;20519;-74
2021/03/05 09:00:40;;;;;;;0.40;0.40;;;4.60;99.90;;;;;;4406770;32;20086;-73
2021/03/05 09:03:09;;;;;;;0.47;0.47;;;4.70;99.90;;;;;;4405992;32;20604;-74
2021/03/05 09:05:38;;;;;;;0.77;0.77;;;4.90;99.90;;;;;;4405883;32;20137;-74
2021/03/05 09:08:05;;;;;;;0.50;0.50;;;5.10;99.90;;;;;;4406874;32;20204;-74
2021/03/05 09:10:52;;;;;;;0.45;0.45;;;5.30;99.90;;;;;;4407731;32;20092;-74
2021/03/05 09:13:22;;;;;;;0.30;0.30;;;5.30;99.90;;;;;;4404152;32;20193;-73
2021/03/05 09:15:50;;;;;;;0.40;0.40;;;5.40;99.90;;;;;;4397242;32;20143;-74
2021/03/05 09:18:19;;;;;;;0.40;0.40;;;5.60;99.90;;;;;;4404509;32;20132;-73
2021/03/05 09:20:51;;;;;;;0.43;0.43;;;5.70;99.90;;;;;;4406925;32;20069;-73
2021/03/05 09:23:37;;;;;;;0.40;0.40;;;5.90;99.90;;;;;;4406330;32;20630;-73
2021/03/05 09:26:05;;;;;;;0.50;0.50;;;5.80;99.90;;;;;;4406082;32;20058;-73
2021/03/05 09:28:41;;;;;;;4.47;0.65;;;5.80;99.90;;;;;;4404838;32;20094;-73
2021/03/05 09:31:08;;;;;;;2.28;1.23;;;5.80;99.90;;;;;;4404154;32;20509;-73
2021/03/05 09:33:36;;;;;;;0.40;0.40;;;5.70;99.90;;;;;;4405898;32;20081;-73
2021/03/05 09:36:06;;;;;;;0.40;0.40;;;5.60;99.90;;;;;;4402768;32;20082;-73
2021/03/05 09:38:34;;;;;;;0.50;0.50;;;5.80;99.90;;;;;;4405426;32;20065;-74
2021/03/05 09:41:20;;;;;;;0.40;0.40;;;6.10;99.90;;;;;;4404807;32;20822;-73
2021/03/05 09:44:00;;;;;;;0.30;0.30;;;6.30;99.90;;;;;;4401750;32;20124;-73
2021/03/05 09:46:28;;;;;;;0.30;0.30;;;6.40;99.90;;;;;;4406213;32;20605;-73
2021/03/05 09:48:55;;;;;;;5.62;0.60;;;6.50;99.90;;;;;;4403627;32;20314;-73
2021/03/05 09:51:22;;;;;;;0.30;0.30;;;6.40;99.90;;;;;;4402087;32;20062;-73
2021/03/05 09:53:52;;;;;;;0.50;0.50;;;6.40;99.90;;;;;;4397965;32;20085;-73
2021/03/05 09:56:18;;;;;;;0.50;0.50;;;6.50;99.90;;;;;;4403075;32;20082;-73
2021/03/05 09:59:00;;;;;;;0.43;0.43;;;6.60;99.90;;;;;;4405047;32;20095;-73
2021/03/05 10:01:30;;;;;;;0.93;0.75;;;6.80;99.90;;;;;;4406746;32;20076;-73
2021/03/05 10:03:59;;;;;;;17.27;0.70;;;6.90;99.90;;;;;;4404199;32;20073;-74
2021/03/05 10:06:26;;;;;;;0.37;0.37;;;7.10;99.90;;;;;;4405486;32;20133;-73
2021/03/05 10:09:01;;;;;;;0.47;0.47;;;7.10;99.90;;;;;;4409151;32;20436;-73
2021/03/05 10:11:34;;;;;;;0.40;0.40;;;7.00;99.90;;;;;;4406871;32;20069;-73
2021/03/05 10:14:00;;;;;;;0.50;0.50;;;7.00;99.90;;;;;;4404430;32;20073;-73
2021/03/05 10:16:28;;;;;;;0.30;0.30;;;7.10;99.90;;;;;;4408993;32;20124;-73
2021/03/05 10:18:56;;;;;;;0.30;0.30;;;7.30;99.90;;;;;;4411353;32;20081;-73
2021/03/05 10:21:23;;;;;;;0.70;0.70;;;7.60;99.90;;;;;;4407447;32;20432;-73
2021/03/05 10:23:49;;;;;;;0.65;0.65;;;7.80;99.90;;;;;;4405884;32;20085;-74
2021/03/05 10:26:18;;;;;;;0.50;0.50;;;7.90;99.90;;;;;;4405256;32;20066;-73
2021/03/05 10:28:45;;;;;;;0.40;0.40;;;7.50;99.90;;;;;;4407764;32;20089;-73
2021/03/05 10:31:11;;;;;;;0.52;0.52;;;7.00;99.90;;;;;;4406153;32;20446;-74
2021/03/05 10:33:43;;;;;;;0.50;0.50;;;6.80;99.90;;;;;;4405189;32;20425;-73
2021/03/05 10:36:10;;;;;;;0.40;0.40;;;6.90;99.90;;;;;;4404392;32;20066;-73
2021/03/05 10:38:36;;;;;;;0.30;0.30;;;6.80;99.90;;;;;;4404033;32;20104;-73
2021/03/05 10:41:03;;;;;;;0.40;0.40;;;7.10;99.90;;;;;;4408964;32;20077;-73
2021/03/05 10:43:28;;;;;;;0.35;0.35;;;7.40;99.90;;;;;;4406669;32;80430;-74
2021/03/05 10:45:54;;;;;;;0.30;0.30;;;7.50;99.90;;;;;;4407165;32;20123;-75
2021/03/05 10:48:19;;;;;;;2.50;1.70;;;7.30;99.90;;;;;;4408181;32;20069;-74
2021/03/05 10:50:45;;;;;;;0.50;0.50;;;7.40;99.90;;;;;;4409622;32;20550;-75
2021/03/05 10:53:10;;;;;;;0.40;0.40;;;7.40;99.90;;;;;;4409861;32;20074;-73
2021/03/05 10:55:36;;;;;;;0.40;0.40;;;7.40;99.50;;;;;;4402738;32;20124;-74
2021/03/05 10:58:02;;;;;;;0.40;0.40;;;7.50;99.90;;;;;;4410014;32;20088;-75
2021/03/05 11:00:29;;;;;;;0.40;0.40;;;7.60;99.90;;;;;;4408890;32;20124;-75
2021/03/05 11:02:54;;;;;;;0.40;0.40;;;7.60;99.90;;;;;;4407601;32;20543;-75
2021/03/05 11:05:20;;;;;;;0.70;0.57;;;7.70;98.60;;;;;;4403686;32;20070;-75
2021/03/05 11:07:45;;;;;;;0.40;0.40;;;7.70;98.60;;;;;;4408362;32;20065;-76
2021/03/05 11:10:12;;;;;;;0.40;0.40;;;7.70;99.50;;;;;;4409896;32;20117;-73
2021/03/05 11:12:37;;;;;;;0.30;0.30;;;7.80;96.40;;;;;;4405322;32;20140;-76
2021/03/05 11:15:04;;;;;;;0.50;0.50;;;7.60;96.20;;;;;;4403261;32;20511;-75
2021/03/05 11:17:30;;;;;;;0.30;0.30;;;7.80;96.50;;;;;;4409732;32;20065;-74
2021/03/05 11:19:56;;;;;;;0.55;0.55;;;8.00;95.10;;;;;;4407795;32;20082;-74
2021/03/05 11:22:23;;;;;;;0.37;0.37;;;8.20;95.00;;;;;;4406959;32;20078;-74
2021/03/05 11:24:49;;;;;;;0.62;0.50;;;8.40;93.50;;;;;;4404279;32;20147;-74
2021/03/05 11:27:15;;;;;;;0.30;0.30;;;8.70;93.00;;;;;;4406729;32;20049;-74
2021/03/05 11:29:40;;;;;;;0.32;0.32;;;8.80;93.30;;;;;;4404786;32;20062;-74
2021/03/05 11:32:07;;;;;;;0.43;0.43;;;9.10;91.30;;;;;;4409896;32;20098;-74
2021/03/05 11:34:32;;;;;;;1.40;1.30;;;9.20;91.80;;;;;;4403072;32;20149;-74
2021/03/05 11:36:58;;;;;;;0.40;0.40;;;9.70;94.20;;;;;;4407601;32;20169;-74
2021/03/05 11:39:23;;;;;;;2.80;0.55;;;9.70;89.70;;;;;;4406890;32;20267;-74
2021/03/05 11:41:49;;;;;;;0.47;0.47;;;9.90;90.20;;;;;;4408386;32;20062;-74
2021/03/05 11:44:14;;;;;;;0.40;0.40;;;9.70;89.10;;;;;;4412370;32;20066;-74
2021/03/05 11:46:40;;;;;;;0.50;0.50;;;9.90;89.10;;;;;;4412465;32;20065;-74
2021/03/05 11:49:06;;;;;;;0.45;0.45;;;10.00;87.80;;;;;;4411796;32;20077;-74
2021/03/05 11:51:31;;;;;;;0.82;0.50;;;10.10;86.20;;;;;;4411497;32;20082;-74
2021/03/05 11:53:56;;;;;;;0.47;0.47;;;9.90;84.10;;;;;;4412381;32;20083;-74
2021/03/05 11:56:22;;;;;;;1.65;0.55;;;9.50;76.20;;;;;;4412270;32;20459;-74
2021/03/05 11:58:48;;;;;;;0.43;0.43;;;9.80;78.80;;;;;;4411955;32;20061;-74
2021/03/05 12:01:13;;;;;;;0.30;0.30;;;10.20;74.40;;;;;;4410592;32;20118;-74
2021/03/05 12:03:40;;;;;;;0.73;0.52;;;9.90;72.40;;;;;;4396234;32;20078;-74
2021/03/05 12:06:06;;;;;;;0.30;0.30;;;9.80;73.20;;;;;;4410074;32;20124;-74
2021/03/05 12:08:32;;;;;;;0.30;0.30;;;10.40;74.40;;;;;;4414543;32;20454;-74
2021/03/05 12:10:57;;;;;;;0.30;0.30;;;10.00;74.30;;;;;;4414895;32;20073;-74
2021/03/05 12:13:23;;;;;;;0.37;0.37;;;9.30;77.50;;;;;;4411405;32;20131;-74
2021/03/05 12:15:48;;;;;;;0.30;0.30;;;9.70;78.10;;;;;;4411393;32;20120;-74
2021/03/05 12:18:14;;;;;;;1.33;1.00;;;10.20;75.10;;;;;;4409898;32;20511;-74
2021/03/05 12:20:39;;;;;;;0.40;0.40;;;10.70;72.30;;;;;;4411766;32;20086;-74
2021/03/05 12:23:06;;;;;;;1.65;1.23;;;11.00;70.20;;;;;;4415917;32;20391;-74
2021/03/05 12:25:32;;;;;;;0.30;0.30;;;10.90;67.30;;;;;;4410403;32;20188;-74
2021/03/05 12:27:58;;;;;;;0.40;0.40;;;10.80;64.80;;;;;;4421028;32;20077;-74
2021/03/05 12:30:24;;;;;;;0.30;0.30;;;11.30;64.20;;;;;;4412002;32;20413;-75
2021/03/05 12:32:50;;;;;;;0.40;0.40;;;12.10;61.20;;;;;;4411412;32;20066;-74
2021/03/05 12:35:16;;;;;;;0.50;0.50;;;12.80;57.60;;;;;;4417143;32;20086;-75
2021/03/05 12:37:43;;;;;;;0.32;0.32;;;12.80;58.30;;;;;;4416037;32;20118;-74
2021/03/05 12:40:10;;;;;;;0.40;0.40;;;12.70;57.40;;;;;;4414512;32;20127;-74
2021/03/05 12:42:36;;;;;;;0.37;0.37;;;12.80;56.20;;;;;;4412451;32;20098;-75
2021/03/05 12:45:05;;;;;;;0.40;0.40;;;12.50;56.60;;;;;;4413635;32;20081;-74
2021/03/05 12:47:30;;;;;;;0.30;0.30;;;12.80;55.80;;;;;;4417671;32;20074;-74
2021/03/05 12:49:56;;;;;;;0.30;0.30;;;12.90;53.50;;;;;;4414535;32;20057;-74
2021/03/05 12:52:21;;;;;;;0.40;0.40;;;13.50;52.80;;;;;;4414555;32;20077;-74
2021/03/05 12:54:47;;;;;;;0.50;0.50;;;13.50;52.60;;;;;;4414607;32;20066;-74
2021/03/05 12:57:12;;;;;;;0.52;0.52;;;12.80;52.70;;;;;;4414519;32;20086;-74
2021/03/05 12:59:38;;;;;;;0.40;0.40;;;12.50;55.10;;;;;;4413269;32;20500;-74